<?xml version="1.0" encoding="UTF-8" standalone="no" ?>
<gpx xmlns="http://www.topografix.com/GPX/1/1" xmlns:xsi="http://www.w3.org/2001/XMLSchema-instance" xsi:schemaLocation="http://www.topografix.com/GPX/1/1 http://www.topografix.com/GPX/1/1/gpx.xsd" version="1.1" creator="VisuGPX - https://www.visugpx.com">
  <metadata>
    <name>24/07/16 - Kaiserstuhl</name>
    <desc><![CDATA[Randonnée dans le Kaiserstuhl]]></desc>
  </metadata>
  <trk>
    <name><![CDATA[2016-07-24 10:38]]></name>
    <desc><![CDATA[<p>Start time: 07/24/2016 10:38</p><p>Finish time: 07/24/2016 15:26</p><p>Distance: 12 km (04:47)</p><p>Moving time: 02:38</p><p>Average speed: 2.5 km/h</p><p>Avg. Speed Mov.: 4.55 km/h</p><p>Max. speed: 8.02km/h</p><p>Minimum altitude: 214 m</p><p>Maximum altitude: 559 m</p><p>Ascent speed: 205.1 m/h</p><p>Descent speed: -463.7 m/h</p><p>Elevation gain: 667 m</p><p>Elevation loss: -681 m</p><p>Ascent time: 03:15</p><p>Descent time: 01:28</p><hr align="center" width="480" style="height: 2px; width: 517px"/>]]></desc>
    <trkseg>
      <trkpt lat="48.08818" lon="7.64082">
        <ele>244.84</ele>
        <time>2016-07-24T08:38:31Z</time>
      </trkpt>
      <trkpt lat="48.08834" lon="7.64101">
        <ele>243.18</ele>
        <time>2016-07-24T08:44:03Z</time>
      </trkpt>
      <trkpt lat="48.0885" lon="7.64121">
        <ele>240.16</ele>
        <time>2016-07-24T08:44:19Z</time>
      </trkpt>
      <trkpt lat="48.08849" lon="7.64151">
        <ele>238.27</ele>
        <time>2016-07-24T08:44:35Z</time>
      </trkpt>
      <trkpt lat="48.08855" lon="7.64183">
        <ele>227.73</ele>
        <time>2016-07-24T08:44:51Z</time>
      </trkpt>
      <trkpt lat="48.08868" lon="7.64208">
        <ele>233.67</ele>
        <time>2016-07-24T08:45:07Z</time>
      </trkpt>
      <trkpt lat="48.08878" lon="7.64237">
        <ele>237.89</ele>
        <time>2016-07-24T08:45:23Z</time>
      </trkpt>
      <trkpt lat="48.0889" lon="7.64267">
        <ele>236.41</ele>
        <time>2016-07-24T08:45:39Z</time>
      </trkpt>
      <trkpt lat="48.08887" lon="7.643">
        <ele>231.62</ele>
        <time>2016-07-24T08:45:55Z</time>
      </trkpt>
      <trkpt lat="48.08894" lon="7.64327">
        <ele>234.67</ele>
        <time>2016-07-24T08:46:11Z</time>
      </trkpt>
      <trkpt lat="48.08907" lon="7.64353">
        <ele>237.67</ele>
        <time>2016-07-24T08:46:27Z</time>
      </trkpt>
      <trkpt lat="48.08894" lon="7.6438">
        <ele>231.07</ele>
        <time>2016-07-24T08:46:43Z</time>
      </trkpt>
      <trkpt lat="48.08899" lon="7.64409">
        <ele>234.5</ele>
        <time>2016-07-24T08:47:03Z</time>
      </trkpt>
      <trkpt lat="48.08914" lon="7.6443">
        <ele>232.1</ele>
        <time>2016-07-24T08:47:19Z</time>
      </trkpt>
      <trkpt lat="48.08931" lon="7.64446">
        <ele>240.2</ele>
        <time>2016-07-24T08:47:47Z</time>
      </trkpt>
      <trkpt lat="48.08939" lon="7.64479">
        <ele>232.68</ele>
        <time>2016-07-24T08:48:03Z</time>
      </trkpt>
      <trkpt lat="48.08937" lon="7.64506">
        <ele>236.48</ele>
        <time>2016-07-24T08:48:15Z</time>
      </trkpt>
      <trkpt lat="48.08937" lon="7.64538">
        <ele>243.4</ele>
        <time>2016-07-24T08:48:31Z</time>
      </trkpt>
      <trkpt lat="48.08925" lon="7.64563">
        <ele>248.98</ele>
        <time>2016-07-24T08:48:51Z</time>
      </trkpt>
      <trkpt lat="48.08907" lon="7.64574">
        <ele>252.3</ele>
        <time>2016-07-24T08:49:07Z</time>
      </trkpt>
      <trkpt lat="48.08889" lon="7.64598">
        <ele>248.53</ele>
        <time>2016-07-24T08:49:23Z</time>
      </trkpt>
      <trkpt lat="48.08873" lon="7.64614">
        <ele>242.11</ele>
        <time>2016-07-24T08:49:39Z</time>
      </trkpt>
      <trkpt lat="48.08857" lon="7.64632">
        <ele>252.14</ele>
        <time>2016-07-24T08:49:55Z</time>
      </trkpt>
      <trkpt lat="48.08844" lon="7.64655">
        <ele>261.18</ele>
        <time>2016-07-24T08:50:15Z</time>
      </trkpt>
      <trkpt lat="48.08827" lon="7.64671">
        <ele>264.05</ele>
        <time>2016-07-24T08:50:31Z</time>
      </trkpt>
      <trkpt lat="48.08805" lon="7.64678">
        <ele>266.47</ele>
        <time>2016-07-24T08:50:47Z</time>
      </trkpt>
      <trkpt lat="48.08786" lon="7.64688">
        <ele>274.92</ele>
        <time>2016-07-24T08:51:03Z</time>
      </trkpt>
      <trkpt lat="48.08769" lon="7.64696">
        <ele>275.99</ele>
        <time>2016-07-24T08:51:19Z</time>
      </trkpt>
      <trkpt lat="48.08775" lon="7.64723">
        <ele>266.99</ele>
        <time>2016-07-24T08:52:07Z</time>
      </trkpt>
      <trkpt lat="48.0878" lon="7.64756">
        <ele>261.43</ele>
        <time>2016-07-24T08:52:23Z</time>
      </trkpt>
      <trkpt lat="48.08789" lon="7.64786">
        <ele>269.36</ele>
        <time>2016-07-24T08:52:39Z</time>
      </trkpt>
      <trkpt lat="48.08793" lon="7.64815">
        <ele>272.59</ele>
        <time>2016-07-24T08:52:55Z</time>
      </trkpt>
      <trkpt lat="48.08797" lon="7.64843">
        <ele>276.67</ele>
        <time>2016-07-24T08:53:11Z</time>
      </trkpt>
      <trkpt lat="48.08801" lon="7.64873">
        <ele>277.57</ele>
        <time>2016-07-24T08:53:27Z</time>
      </trkpt>
      <trkpt lat="48.08805" lon="7.64904">
        <ele>277.11</ele>
        <time>2016-07-24T08:53:43Z</time>
      </trkpt>
      <trkpt lat="48.0881" lon="7.64934">
        <ele>275.85</ele>
        <time>2016-07-24T08:53:59Z</time>
      </trkpt>
      <trkpt lat="48.08818" lon="7.64963">
        <ele>280.57</ele>
        <time>2016-07-24T08:54:15Z</time>
      </trkpt>
      <trkpt lat="48.08814" lon="7.64991">
        <ele>285.26</ele>
        <time>2016-07-24T08:54:31Z</time>
      </trkpt>
      <trkpt lat="48.08803" lon="7.65021">
        <ele>278.28</ele>
        <time>2016-07-24T08:54:47Z</time>
      </trkpt>
      <trkpt lat="48.0879" lon="7.65048">
        <ele>286.04</ele>
        <time>2016-07-24T08:55:03Z</time>
      </trkpt>
      <trkpt lat="48.08782" lon="7.65077">
        <ele>286.51</ele>
        <time>2016-07-24T08:55:27Z</time>
      </trkpt>
      <trkpt lat="48.08768" lon="7.65106">
        <ele>283.71</ele>
        <time>2016-07-24T08:55:43Z</time>
      </trkpt>
      <trkpt lat="48.0876" lon="7.65136">
        <ele>284.44</ele>
        <time>2016-07-24T08:55:59Z</time>
      </trkpt>
      <trkpt lat="48.08757" lon="7.65166">
        <ele>283.84</ele>
        <time>2016-07-24T08:56:15Z</time>
      </trkpt>
      <trkpt lat="48.08755" lon="7.65198">
        <ele>287.82</ele>
        <time>2016-07-24T08:56:31Z</time>
      </trkpt>
      <trkpt lat="48.08753" lon="7.65229">
        <ele>295.64</ele>
        <time>2016-07-24T08:56:47Z</time>
      </trkpt>
      <trkpt lat="48.08758" lon="7.65257">
        <ele>282.19</ele>
        <time>2016-07-24T08:57:03Z</time>
      </trkpt>
      <trkpt lat="48.0875" lon="7.65286">
        <ele>285.39</ele>
        <time>2016-07-24T08:57:23Z</time>
      </trkpt>
      <trkpt lat="48.08739" lon="7.65313">
        <ele>283.84</ele>
        <time>2016-07-24T08:57:39Z</time>
      </trkpt>
      <trkpt lat="48.08734" lon="7.65344">
        <ele>284.68</ele>
        <time>2016-07-24T08:57:59Z</time>
      </trkpt>
      <trkpt lat="48.08722" lon="7.65377">
        <ele>282.88</ele>
        <time>2016-07-24T08:58:19Z</time>
      </trkpt>
      <trkpt lat="48.08714" lon="7.65405">
        <ele>293.35</ele>
        <time>2016-07-24T08:58:35Z</time>
      </trkpt>
      <trkpt lat="48.08706" lon="7.65434">
        <ele>297.04</ele>
        <time>2016-07-24T08:58:51Z</time>
      </trkpt>
      <trkpt lat="48.08696" lon="7.65462">
        <ele>299.43</ele>
        <time>2016-07-24T08:59:11Z</time>
      </trkpt>
      <trkpt lat="48.08688" lon="7.65491">
        <ele>303.43</ele>
        <time>2016-07-24T08:59:27Z</time>
      </trkpt>
      <trkpt lat="48.08679" lon="7.65518">
        <ele>304.26</ele>
        <time>2016-07-24T08:59:47Z</time>
      </trkpt>
      <trkpt lat="48.08674" lon="7.65547">
        <ele>305</ele>
        <time>2016-07-24T09:00:07Z</time>
      </trkpt>
      <trkpt lat="48.08669" lon="7.65578">
        <ele>309.59</ele>
        <time>2016-07-24T09:00:23Z</time>
      </trkpt>
      <trkpt lat="48.08661" lon="7.65604">
        <ele>308.54</ele>
        <time>2016-07-24T09:00:39Z</time>
      </trkpt>
      <trkpt lat="48.08652" lon="7.65632">
        <ele>319.79</ele>
        <time>2016-07-24T09:01:03Z</time>
      </trkpt>
      <trkpt lat="48.08643" lon="7.65657">
        <ele>324.12</ele>
        <time>2016-07-24T09:01:19Z</time>
      </trkpt>
      <trkpt lat="48.08638" lon="7.65685">
        <ele>325.24</ele>
        <time>2016-07-24T09:01:35Z</time>
      </trkpt>
      <trkpt lat="48.08628" lon="7.65712">
        <ele>325.55</ele>
        <time>2016-07-24T09:01:55Z</time>
      </trkpt>
      <trkpt lat="48.08617" lon="7.65735">
        <ele>324.17</ele>
        <time>2016-07-24T09:02:15Z</time>
      </trkpt>
      <trkpt lat="48.08606" lon="7.65758">
        <ele>327.05</ele>
        <time>2016-07-24T09:02:31Z</time>
      </trkpt>
      <trkpt lat="48.08595" lon="7.65786">
        <ele>331.24</ele>
        <time>2016-07-24T09:02:47Z</time>
      </trkpt>
      <trkpt lat="48.08585" lon="7.65817">
        <ele>332.83</ele>
        <time>2016-07-24T09:03:03Z</time>
      </trkpt>
      <trkpt lat="48.08572" lon="7.65841">
        <ele>342.94</ele>
        <time>2016-07-24T09:03:31Z</time>
      </trkpt>
      <trkpt lat="48.08555" lon="7.65855">
        <ele>354.31</ele>
        <time>2016-07-24T09:03:59Z</time>
      </trkpt>
      <trkpt lat="48.08541" lon="7.65883">
        <ele>359.71</ele>
        <time>2016-07-24T09:04:19Z</time>
      </trkpt>
      <trkpt lat="48.08533" lon="7.65911">
        <ele>359.05</ele>
        <time>2016-07-24T09:04:35Z</time>
      </trkpt>
      <trkpt lat="48.08528" lon="7.65941">
        <ele>350.51</ele>
        <time>2016-07-24T09:04:59Z</time>
      </trkpt>
      <trkpt lat="48.0852" lon="7.65971">
        <ele>355.07</ele>
        <time>2016-07-24T09:05:19Z</time>
      </trkpt>
      <trkpt lat="48.08518" lon="7.65998">
        <ele>355.69</ele>
        <time>2016-07-24T09:05:35Z</time>
      </trkpt>
      <trkpt lat="48.08511" lon="7.66023">
        <ele>359.93</ele>
        <time>2016-07-24T09:05:47Z</time>
      </trkpt>
      <trkpt lat="48.08509" lon="7.66051">
        <ele>361.77</ele>
        <time>2016-07-24T09:06:03Z</time>
      </trkpt>
      <trkpt lat="48.08518" lon="7.66075">
        <ele>366.14</ele>
        <time>2016-07-24T09:06:19Z</time>
      </trkpt>
      <trkpt lat="48.08524" lon="7.66105">
        <ele>361.92</ele>
        <time>2016-07-24T09:06:35Z</time>
      </trkpt>
      <trkpt lat="48.08535" lon="7.6613">
        <ele>363.4</ele>
        <time>2016-07-24T09:06:51Z</time>
      </trkpt>
      <trkpt lat="48.08543" lon="7.66156">
        <ele>363.49</ele>
        <time>2016-07-24T09:07:07Z</time>
      </trkpt>
      <trkpt lat="48.0855" lon="7.66188">
        <ele>362.68</ele>
        <time>2016-07-24T09:07:27Z</time>
      </trkpt>
      <trkpt lat="48.08552" lon="7.66215">
        <ele>368.31</ele>
        <time>2016-07-24T09:07:47Z</time>
      </trkpt>
      <trkpt lat="48.08541" lon="7.66244">
        <ele>362.84</ele>
        <time>2016-07-24T09:08:23Z</time>
      </trkpt>
      <trkpt lat="48.08531" lon="7.66268">
        <ele>368.61</ele>
        <time>2016-07-24T09:08:43Z</time>
      </trkpt>
      <trkpt lat="48.08521" lon="7.66296">
        <ele>376.36</ele>
        <time>2016-07-24T09:09:07Z</time>
      </trkpt>
      <trkpt lat="48.08508" lon="7.66316">
        <ele>386.3</ele>
        <time>2016-07-24T09:09:31Z</time>
      </trkpt>
      <trkpt lat="48.0851" lon="7.66344">
        <ele>380.8</ele>
        <time>2016-07-24T09:09:59Z</time>
      </trkpt>
      <trkpt lat="48.08513" lon="7.66376">
        <ele>385.15</ele>
        <time>2016-07-24T09:10:19Z</time>
      </trkpt>
      <trkpt lat="48.08522" lon="7.66402">
        <ele>399.16</ele>
        <time>2016-07-24T09:10:39Z</time>
      </trkpt>
      <trkpt lat="48.08533" lon="7.66427">
        <ele>404.61</ele>
        <time>2016-07-24T09:10:59Z</time>
      </trkpt>
      <trkpt lat="48.08542" lon="7.66454">
        <ele>407.43</ele>
        <time>2016-07-24T09:11:19Z</time>
      </trkpt>
      <trkpt lat="48.08552" lon="7.66479">
        <ele>413.63</ele>
        <time>2016-07-24T09:11:43Z</time>
      </trkpt>
      <trkpt lat="48.08563" lon="7.66507">
        <ele>412.94</ele>
        <time>2016-07-24T09:12:15Z</time>
      </trkpt>
      <trkpt lat="48.08544" lon="7.66516">
        <ele>412.29</ele>
        <time>2016-07-24T09:15:18Z</time>
      </trkpt>
      <trkpt lat="48.08525" lon="7.66499">
        <ele>426.29</ele>
        <time>2016-07-24T09:15:38Z</time>
      </trkpt>
      <trkpt lat="48.08509" lon="7.66514">
        <ele>422.52</ele>
        <time>2016-07-24T09:16:06Z</time>
      </trkpt>
      <trkpt lat="48.08492" lon="7.6653">
        <ele>430</ele>
        <time>2016-07-24T09:16:34Z</time>
      </trkpt>
      <trkpt lat="48.08476" lon="7.66547">
        <ele>435.5</ele>
        <time>2016-07-24T09:16:54Z</time>
      </trkpt>
      <trkpt lat="48.08461" lon="7.66574">
        <ele>447.32</ele>
        <time>2016-07-24T09:17:30Z</time>
      </trkpt>
      <trkpt lat="48.08452" lon="7.666">
        <ele>441.47</ele>
        <time>2016-07-24T09:17:46Z</time>
      </trkpt>
      <trkpt lat="48.08439" lon="7.66622">
        <ele>448.65</ele>
        <time>2016-07-24T09:18:14Z</time>
      </trkpt>
      <trkpt lat="48.08425" lon="7.6664">
        <ele>453.64</ele>
        <time>2016-07-24T09:18:38Z</time>
      </trkpt>
      <trkpt lat="48.08407" lon="7.66649">
        <ele>454.7</ele>
        <time>2016-07-24T09:19:02Z</time>
      </trkpt>
      <trkpt lat="48.08396" lon="7.66671">
        <ele>452.04</ele>
        <time>2016-07-24T09:19:22Z</time>
      </trkpt>
      <trkpt lat="48.08382" lon="7.66699">
        <ele>460.37</ele>
        <time>2016-07-24T09:19:43Z</time>
      </trkpt>
      <trkpt lat="48.08363" lon="7.66699">
        <ele>468.46</ele>
        <time>2016-07-24T09:20:03Z</time>
      </trkpt>
      <trkpt lat="48.0834" lon="7.66707">
        <ele>472.97</ele>
        <time>2016-07-24T09:20:27Z</time>
      </trkpt>
      <trkpt lat="48.08324" lon="7.66721">
        <ele>470.8</ele>
        <time>2016-07-24T09:20:43Z</time>
      </trkpt>
      <trkpt lat="48.08309" lon="7.66738">
        <ele>475.59</ele>
        <time>2016-07-24T09:21:03Z</time>
      </trkpt>
      <trkpt lat="48.08289" lon="7.66749">
        <ele>487.96</ele>
        <time>2016-07-24T09:21:27Z</time>
      </trkpt>
      <trkpt lat="48.08271" lon="7.66758">
        <ele>488.67</ele>
        <time>2016-07-24T09:21:47Z</time>
      </trkpt>
      <trkpt lat="48.08257" lon="7.66776">
        <ele>491.56</ele>
        <time>2016-07-24T09:22:35Z</time>
      </trkpt>
      <trkpt lat="48.08246" lon="7.66798">
        <ele>491.53</ele>
        <time>2016-07-24T09:22:55Z</time>
      </trkpt>
      <trkpt lat="48.0825" lon="7.66827">
        <ele>490.12</ele>
        <time>2016-07-24T09:23:31Z</time>
      </trkpt>
      <trkpt lat="48.08254" lon="7.66854">
        <ele>491.53</ele>
        <time>2016-07-24T09:24:23Z</time>
      </trkpt>
      <trkpt lat="48.08265" lon="7.66876">
        <ele>496.24</ele>
        <time>2016-07-24T09:25:07Z</time>
      </trkpt>
      <trkpt lat="48.08271" lon="7.66904">
        <ele>503.69</ele>
        <time>2016-07-24T09:25:51Z</time>
      </trkpt>
      <trkpt lat="48.08272" lon="7.66933">
        <ele>515.22</ele>
        <time>2016-07-24T09:26:19Z</time>
      </trkpt>
      <trkpt lat="48.08257" lon="7.66952">
        <ele>522.42</ele>
        <time>2016-07-24T09:26:43Z</time>
      </trkpt>
      <trkpt lat="48.0824" lon="7.66964">
        <ele>527.39</ele>
        <time>2016-07-24T09:27:07Z</time>
      </trkpt>
      <trkpt lat="48.08224" lon="7.66979">
        <ele>533.8</ele>
        <time>2016-07-24T09:27:31Z</time>
      </trkpt>
      <trkpt lat="48.08205" lon="7.66987">
        <ele>538.23</ele>
        <time>2016-07-24T09:28:03Z</time>
      </trkpt>
      <trkpt lat="48.08193" lon="7.67006">
        <ele>536.76</ele>
        <time>2016-07-24T09:28:27Z</time>
      </trkpt>
      <trkpt lat="48.08178" lon="7.67031">
        <ele>536.17</ele>
        <time>2016-07-24T09:28:51Z</time>
      </trkpt>
      <trkpt lat="48.08161" lon="7.67052">
        <ele>538.48</ele>
        <time>2016-07-24T09:29:11Z</time>
      </trkpt>
      <trkpt lat="48.08148" lon="7.67075">
        <ele>547.55</ele>
        <time>2016-07-24T09:29:27Z</time>
      </trkpt>
      <trkpt lat="48.08132" lon="7.67094">
        <ele>549.64</ele>
        <time>2016-07-24T09:29:55Z</time>
      </trkpt>
      <trkpt lat="48.08115" lon="7.67108">
        <ele>544.87</ele>
        <time>2016-07-24T09:30:19Z</time>
      </trkpt>
      <trkpt lat="48.08124" lon="7.67084">
        <ele>555.51</ele>
        <time>2016-07-24T09:31:19Z</time>
      </trkpt>
      <trkpt lat="48.08111" lon="7.67107">
        <ele>549.56</ele>
        <time>2016-07-24T09:35:28Z</time>
      </trkpt>
      <trkpt lat="48.08104" lon="7.67135">
        <ele>544.67</ele>
        <time>2016-07-24T09:36:20Z</time>
      </trkpt>
      <trkpt lat="48.08094" lon="7.6716">
        <ele>553.74</ele>
        <time>2016-07-24T09:36:44Z</time>
      </trkpt>
      <trkpt lat="48.08093" lon="7.67189">
        <ele>555.62</ele>
        <time>2016-07-24T09:37:00Z</time>
      </trkpt>
      <trkpt lat="48.08088" lon="7.67221">
        <ele>555.77</ele>
        <time>2016-07-24T09:37:24Z</time>
      </trkpt>
      <trkpt lat="48.08098" lon="7.67258">
        <ele>559.03</ele>
        <time>2016-07-24T09:37:53Z</time>
      </trkpt>
      <trkpt lat="48.08101" lon="7.6729">
        <ele>558.86</ele>
        <time>2016-07-24T09:45:12Z</time>
      </trkpt>
      <trkpt lat="48.08097" lon="7.67318">
        <ele>553.89</ele>
        <time>2016-07-24T09:45:40Z</time>
      </trkpt>
      <trkpt lat="48.08106" lon="7.67346">
        <ele>542.1</ele>
        <time>2016-07-24T09:46:08Z</time>
      </trkpt>
      <trkpt lat="48.08113" lon="7.67376">
        <ele>546.63</ele>
        <time>2016-07-24T09:46:32Z</time>
      </trkpt>
      <trkpt lat="48.08119" lon="7.67404">
        <ele>541.28</ele>
        <time>2016-07-24T09:46:56Z</time>
      </trkpt>
      <trkpt lat="48.08119" lon="7.67433">
        <ele>530.08</ele>
        <time>2016-07-24T09:47:20Z</time>
      </trkpt>
      <trkpt lat="48.0812" lon="7.67461">
        <ele>524.88</ele>
        <time>2016-07-24T09:47:36Z</time>
      </trkpt>
      <trkpt lat="48.08122" lon="7.67488">
        <ele>520.06</ele>
        <time>2016-07-24T09:48:04Z</time>
      </trkpt>
      <trkpt lat="48.08125" lon="7.67521">
        <ele>517.01</ele>
        <time>2016-07-24T09:48:24Z</time>
      </trkpt>
      <trkpt lat="48.08123" lon="7.67551">
        <ele>511.79</ele>
        <time>2016-07-24T09:48:44Z</time>
      </trkpt>
      <trkpt lat="48.08127" lon="7.67578">
        <ele>509.66</ele>
        <time>2016-07-24T09:49:12Z</time>
      </trkpt>
      <trkpt lat="48.08136" lon="7.67603">
        <ele>507.91</ele>
        <time>2016-07-24T09:49:28Z</time>
      </trkpt>
      <trkpt lat="48.08149" lon="7.67627">
        <ele>508.76</ele>
        <time>2016-07-24T09:49:48Z</time>
      </trkpt>
      <trkpt lat="48.08161" lon="7.67649">
        <ele>511.62</ele>
        <time>2016-07-24T09:50:04Z</time>
      </trkpt>
      <trkpt lat="48.08176" lon="7.67672">
        <ele>514.78</ele>
        <time>2016-07-24T09:50:24Z</time>
      </trkpt>
      <trkpt lat="48.08186" lon="7.67697">
        <ele>510.35</ele>
        <time>2016-07-24T09:50:40Z</time>
      </trkpt>
      <trkpt lat="48.08194" lon="7.67726">
        <ele>506.1</ele>
        <time>2016-07-24T09:51:00Z</time>
      </trkpt>
      <trkpt lat="48.08203" lon="7.67751">
        <ele>497.87</ele>
        <time>2016-07-24T09:51:24Z</time>
      </trkpt>
      <trkpt lat="48.08207" lon="7.67778">
        <ele>488.71</ele>
        <time>2016-07-24T09:51:44Z</time>
      </trkpt>
      <trkpt lat="48.08215" lon="7.67802">
        <ele>480.13</ele>
        <time>2016-07-24T09:52:04Z</time>
      </trkpt>
      <trkpt lat="48.08224" lon="7.67827">
        <ele>473.44</ele>
        <time>2016-07-24T09:52:20Z</time>
      </trkpt>
      <trkpt lat="48.08234" lon="7.6785">
        <ele>471.24</ele>
        <time>2016-07-24T09:52:32Z</time>
      </trkpt>
      <trkpt lat="48.0824" lon="7.67883">
        <ele>466.81</ele>
        <time>2016-07-24T09:52:52Z</time>
      </trkpt>
      <trkpt lat="48.08253" lon="7.67905">
        <ele>462.09</ele>
        <time>2016-07-24T09:53:12Z</time>
      </trkpt>
      <trkpt lat="48.08266" lon="7.67927">
        <ele>462.38</ele>
        <time>2016-07-24T09:53:28Z</time>
      </trkpt>
      <trkpt lat="48.08285" lon="7.67945">
        <ele>464.24</ele>
        <time>2016-07-24T09:53:48Z</time>
      </trkpt>
      <trkpt lat="48.08302" lon="7.67965">
        <ele>465.97</ele>
        <time>2016-07-24T09:54:16Z</time>
      </trkpt>
      <trkpt lat="48.08319" lon="7.67982">
        <ele>464.61</ele>
        <time>2016-07-24T09:54:32Z</time>
      </trkpt>
      <trkpt lat="48.08338" lon="7.68005">
        <ele>469.59</ele>
        <time>2016-07-24T09:54:48Z</time>
      </trkpt>
      <trkpt lat="48.08352" lon="7.68031">
        <ele>467.71</ele>
        <time>2016-07-24T09:55:04Z</time>
      </trkpt>
      <trkpt lat="48.08362" lon="7.68055">
        <ele>469.12</ele>
        <time>2016-07-24T09:55:20Z</time>
      </trkpt>
      <trkpt lat="48.0837" lon="7.68082">
        <ele>465.62</ele>
        <time>2016-07-24T09:55:40Z</time>
      </trkpt>
      <trkpt lat="48.08376" lon="7.68108">
        <ele>467.78</ele>
        <time>2016-07-24T09:56:00Z</time>
      </trkpt>
      <trkpt lat="48.08383" lon="7.68135">
        <ele>464.96</ele>
        <time>2016-07-24T09:56:16Z</time>
      </trkpt>
      <trkpt lat="48.08395" lon="7.68157">
        <ele>461.04</ele>
        <time>2016-07-24T09:56:32Z</time>
      </trkpt>
      <trkpt lat="48.08406" lon="7.68183">
        <ele>460.27</ele>
        <time>2016-07-24T09:56:48Z</time>
      </trkpt>
      <trkpt lat="48.08418" lon="7.68204">
        <ele>455.58</ele>
        <time>2016-07-24T09:57:00Z</time>
      </trkpt>
      <trkpt lat="48.08421" lon="7.68236">
        <ele>462.02</ele>
        <time>2016-07-24T09:57:20Z</time>
      </trkpt>
      <trkpt lat="48.08427" lon="7.68264">
        <ele>454.89</ele>
        <time>2016-07-24T09:57:40Z</time>
      </trkpt>
      <trkpt lat="48.08427" lon="7.68295">
        <ele>452.01</ele>
        <time>2016-07-24T09:57:56Z</time>
      </trkpt>
      <trkpt lat="48.0842" lon="7.68322">
        <ele>449.48</ele>
        <time>2016-07-24T09:58:16Z</time>
      </trkpt>
      <trkpt lat="48.08413" lon="7.68347">
        <ele>446.5</ele>
        <time>2016-07-24T09:58:28Z</time>
      </trkpt>
      <trkpt lat="48.08404" lon="7.68371">
        <ele>448.56</ele>
        <time>2016-07-24T09:58:40Z</time>
      </trkpt>
      <trkpt lat="48.08396" lon="7.68397">
        <ele>447.84</ele>
        <time>2016-07-24T09:58:56Z</time>
      </trkpt>
      <trkpt lat="48.08395" lon="7.68429">
        <ele>441.8</ele>
        <time>2016-07-24T09:59:28Z</time>
      </trkpt>
      <trkpt lat="48.08394" lon="7.68462">
        <ele>432.74</ele>
        <time>2016-07-24T09:59:48Z</time>
      </trkpt>
      <trkpt lat="48.08395" lon="7.68493">
        <ele>436.43</ele>
        <time>2016-07-24T10:00:04Z</time>
      </trkpt>
      <trkpt lat="48.08403" lon="7.68518">
        <ele>434.49</ele>
        <time>2016-07-24T10:00:20Z</time>
      </trkpt>
      <trkpt lat="48.08415" lon="7.68543">
        <ele>438.79</ele>
        <time>2016-07-24T10:00:40Z</time>
      </trkpt>
      <trkpt lat="48.08428" lon="7.68563">
        <ele>440.83</ele>
        <time>2016-07-24T10:00:56Z</time>
      </trkpt>
      <trkpt lat="48.08446" lon="7.68578">
        <ele>441.44</ele>
        <time>2016-07-24T10:01:08Z</time>
      </trkpt>
      <trkpt lat="48.08461" lon="7.68603">
        <ele>436.66</ele>
        <time>2016-07-24T10:01:28Z</time>
      </trkpt>
      <trkpt lat="48.08477" lon="7.68625">
        <ele>435.06</ele>
        <time>2016-07-24T10:01:44Z</time>
      </trkpt>
      <trkpt lat="48.08493" lon="7.68642">
        <ele>432.02</ele>
        <time>2016-07-24T10:01:56Z</time>
      </trkpt>
      <trkpt lat="48.08506" lon="7.68665">
        <ele>427.78</ele>
        <time>2016-07-24T10:02:16Z</time>
      </trkpt>
      <trkpt lat="48.08512" lon="7.68692">
        <ele>424.1</ele>
        <time>2016-07-24T10:02:32Z</time>
      </trkpt>
      <trkpt lat="48.08524" lon="7.68716">
        <ele>421.88</ele>
        <time>2016-07-24T10:02:48Z</time>
      </trkpt>
      <trkpt lat="48.08535" lon="7.68739">
        <ele>417.61</ele>
        <time>2016-07-24T10:03:04Z</time>
      </trkpt>
      <trkpt lat="48.08548" lon="7.68767">
        <ele>418.89</ele>
        <time>2016-07-24T10:03:20Z</time>
      </trkpt>
      <trkpt lat="48.08553" lon="7.68796">
        <ele>415.21</ele>
        <time>2016-07-24T10:03:36Z</time>
      </trkpt>
      <trkpt lat="48.08562" lon="7.68826">
        <ele>408.39</ele>
        <time>2016-07-24T10:03:56Z</time>
      </trkpt>
      <trkpt lat="48.08556" lon="7.68854">
        <ele>405.66</ele>
        <time>2016-07-24T10:04:20Z</time>
      </trkpt>
      <trkpt lat="48.08555" lon="7.68882">
        <ele>400.09</ele>
        <time>2016-07-24T10:05:04Z</time>
      </trkpt>
      <trkpt lat="48.08556" lon="7.68911">
        <ele>398.69</ele>
        <time>2016-07-24T10:05:20Z</time>
      </trkpt>
      <trkpt lat="48.08563" lon="7.68941">
        <ele>402.35</ele>
        <time>2016-07-24T10:05:36Z</time>
      </trkpt>
      <trkpt lat="48.08574" lon="7.68967">
        <ele>401.67</ele>
        <time>2016-07-24T10:05:52Z</time>
      </trkpt>
      <trkpt lat="48.08579" lon="7.68994">
        <ele>401.64</ele>
        <time>2016-07-24T10:06:08Z</time>
      </trkpt>
      <trkpt lat="48.0858" lon="7.69022">
        <ele>399.84</ele>
        <time>2016-07-24T10:06:24Z</time>
      </trkpt>
      <trkpt lat="48.08586" lon="7.69055">
        <ele>399.48</ele>
        <time>2016-07-24T10:06:48Z</time>
      </trkpt>
      <trkpt lat="48.08592" lon="7.69085">
        <ele>396.78</ele>
        <time>2016-07-24T10:07:04Z</time>
      </trkpt>
      <trkpt lat="48.08594" lon="7.69115">
        <ele>395.81</ele>
        <time>2016-07-24T10:07:20Z</time>
      </trkpt>
      <trkpt lat="48.08596" lon="7.69145">
        <ele>393.88</ele>
        <time>2016-07-24T10:07:40Z</time>
      </trkpt>
      <trkpt lat="48.0858" lon="7.6916">
        <ele>387.89</ele>
        <time>2016-07-24T10:08:08Z</time>
      </trkpt>
      <trkpt lat="48.08561" lon="7.69171">
        <ele>386.04</ele>
        <time>2016-07-24T10:08:32Z</time>
      </trkpt>
      <trkpt lat="48.08542" lon="7.69189">
        <ele>386.4</ele>
        <time>2016-07-24T10:08:52Z</time>
      </trkpt>
      <trkpt lat="48.08527" lon="7.69212">
        <ele>382.7</ele>
        <time>2016-07-24T10:09:12Z</time>
      </trkpt>
      <trkpt lat="48.08543" lon="7.69229">
        <ele>383.4</ele>
        <time>2016-07-24T10:09:36Z</time>
      </trkpt>
      <trkpt lat="48.08562" lon="7.69219">
        <ele>382.65</ele>
        <time>2016-07-24T10:09:56Z</time>
      </trkpt>
      <trkpt lat="48.08581" lon="7.69214">
        <ele>380.69</ele>
        <time>2016-07-24T10:10:12Z</time>
      </trkpt>
      <trkpt lat="48.08601" lon="7.69217">
        <ele>378.68</ele>
        <time>2016-07-24T10:10:32Z</time>
      </trkpt>
      <trkpt lat="48.08619" lon="7.69224">
        <ele>380.23</ele>
        <time>2016-07-24T10:10:56Z</time>
      </trkpt>
      <trkpt lat="48.08637" lon="7.69232">
        <ele>375.16</ele>
        <time>2016-07-24T10:11:36Z</time>
      </trkpt>
      <trkpt lat="48.08659" lon="7.69226">
        <ele>373.33</ele>
        <time>2016-07-24T10:11:52Z</time>
      </trkpt>
      <trkpt lat="48.08662" lon="7.69198">
        <ele>376.85</ele>
        <time>2016-07-24T10:12:28Z</time>
      </trkpt>
      <trkpt lat="48.08657" lon="7.69172">
        <ele>375.62</ele>
        <time>2016-07-24T10:12:44Z</time>
      </trkpt>
      <trkpt lat="48.0866" lon="7.69144">
        <ele>379.65</ele>
        <time>2016-07-24T10:13:04Z</time>
      </trkpt>
      <trkpt lat="48.08668" lon="7.69115">
        <ele>383.7</ele>
        <time>2016-07-24T10:13:28Z</time>
      </trkpt>
      <trkpt lat="48.08677" lon="7.69091">
        <ele>388.75</ele>
        <time>2016-07-24T10:13:48Z</time>
      </trkpt>
      <trkpt lat="48.0869" lon="7.6907">
        <ele>393.79</ele>
        <time>2016-07-24T10:14:16Z</time>
      </trkpt>
      <trkpt lat="48.08709" lon="7.69068">
        <ele>399.59</ele>
        <time>2016-07-24T10:14:40Z</time>
      </trkpt>
      <trkpt lat="48.08729" lon="7.69081">
        <ele>401.83</ele>
        <time>2016-07-24T10:15:08Z</time>
      </trkpt>
      <trkpt lat="48.08741" lon="7.69105">
        <ele>408.92</ele>
        <time>2016-07-24T10:19:24Z</time>
      </trkpt>
      <trkpt lat="48.08756" lon="7.69126">
        <ele>403.2</ele>
        <time>2016-07-24T10:19:36Z</time>
      </trkpt>
      <trkpt lat="48.08773" lon="7.69143">
        <ele>406.43</ele>
        <time>2016-07-24T10:19:52Z</time>
      </trkpt>
      <trkpt lat="48.08787" lon="7.69163">
        <ele>406.04</ele>
        <time>2016-07-24T10:20:08Z</time>
      </trkpt>
      <trkpt lat="48.08804" lon="7.69178">
        <ele>399.9</ele>
        <time>2016-07-24T10:20:24Z</time>
      </trkpt>
      <trkpt lat="48.0882" lon="7.69194">
        <ele>409.14</ele>
        <time>2016-07-24T10:20:40Z</time>
      </trkpt>
      <trkpt lat="48.08838" lon="7.69211">
        <ele>419.86</ele>
        <time>2016-07-24T10:21:00Z</time>
      </trkpt>
      <trkpt lat="48.08858" lon="7.69222">
        <ele>420.89</ele>
        <time>2016-07-24T10:21:20Z</time>
      </trkpt>
      <trkpt lat="48.08879" lon="7.69232">
        <ele>423.27</ele>
        <time>2016-07-24T10:21:48Z</time>
      </trkpt>
      <trkpt lat="48.08897" lon="7.69248">
        <ele>425.91</ele>
        <time>2016-07-24T10:22:08Z</time>
      </trkpt>
      <trkpt lat="48.08914" lon="7.69266">
        <ele>426.07</ele>
        <time>2016-07-24T10:22:28Z</time>
      </trkpt>
      <trkpt lat="48.08932" lon="7.69275">
        <ele>422.71</ele>
        <time>2016-07-24T10:22:48Z</time>
      </trkpt>
      <trkpt lat="48.08943" lon="7.69299">
        <ele>440.08</ele>
        <time>2016-07-24T10:23:04Z</time>
      </trkpt>
      <trkpt lat="48.08965" lon="7.69314">
        <ele>445.37</ele>
        <time>2016-07-24T10:23:52Z</time>
      </trkpt>
      <trkpt lat="48.08985" lon="7.69323">
        <ele>450.31</ele>
        <time>2016-07-24T10:24:04Z</time>
      </trkpt>
      <trkpt lat="48.09006" lon="7.69334">
        <ele>452.21</ele>
        <time>2016-07-24T10:24:20Z</time>
      </trkpt>
      <trkpt lat="48.09022" lon="7.69346">
        <ele>446.82</ele>
        <time>2016-07-24T10:24:36Z</time>
      </trkpt>
      <trkpt lat="48.09036" lon="7.69368">
        <ele>449.55</ele>
        <time>2016-07-24T10:24:52Z</time>
      </trkpt>
      <trkpt lat="48.09052" lon="7.69388">
        <ele>450.71</ele>
        <time>2016-07-24T10:25:16Z</time>
      </trkpt>
      <trkpt lat="48.09069" lon="7.694">
        <ele>454.23</ele>
        <time>2016-07-24T10:26:20Z</time>
      </trkpt>
      <trkpt lat="48.09087" lon="7.6941">
        <ele>448.64</ele>
        <time>2016-07-24T10:26:56Z</time>
      </trkpt>
      <trkpt lat="48.09068" lon="7.69399">
        <ele>441.87</ele>
        <time>2016-07-24T11:42:35Z</time>
      </trkpt>
      <trkpt lat="48.09076" lon="7.69424">
        <ele>447.35</ele>
        <time>2016-07-24T11:43:15Z</time>
      </trkpt>
      <trkpt lat="48.09091" lon="7.69448">
        <ele>463.68</ele>
        <time>2016-07-24T11:43:47Z</time>
      </trkpt>
      <trkpt lat="48.09105" lon="7.69467">
        <ele>471.62</ele>
        <time>2016-07-24T11:44:15Z</time>
      </trkpt>
      <trkpt lat="48.09118" lon="7.69488">
        <ele>481.55</ele>
        <time>2016-07-24T11:44:51Z</time>
      </trkpt>
      <trkpt lat="48.09132" lon="7.69508">
        <ele>482.58</ele>
        <time>2016-07-24T11:45:19Z</time>
      </trkpt>
      <trkpt lat="48.09148" lon="7.69528">
        <ele>487.32</ele>
        <time>2016-07-24T11:45:59Z</time>
      </trkpt>
      <trkpt lat="48.09164" lon="7.69542">
        <ele>488.24</ele>
        <time>2016-07-24T11:46:19Z</time>
      </trkpt>
      <trkpt lat="48.09176" lon="7.69562">
        <ele>498.06</ele>
        <time>2016-07-24T11:47:03Z</time>
      </trkpt>
      <trkpt lat="48.09191" lon="7.69583">
        <ele>510.18</ele>
        <time>2016-07-24T11:47:27Z</time>
      </trkpt>
      <trkpt lat="48.09206" lon="7.696">
        <ele>510</ele>
        <time>2016-07-24T11:47:55Z</time>
      </trkpt>
      <trkpt lat="48.09226" lon="7.69604">
        <ele>512.01</ele>
        <time>2016-07-24T11:48:23Z</time>
      </trkpt>
      <trkpt lat="48.09244" lon="7.69598">
        <ele>516.61</ele>
        <time>2016-07-24T11:49:39Z</time>
      </trkpt>
      <trkpt lat="48.09261" lon="7.69585">
        <ele>533.83</ele>
        <time>2016-07-24T12:00:23Z</time>
      </trkpt>
      <trkpt lat="48.09282" lon="7.69587">
        <ele>523.68</ele>
        <time>2016-07-24T12:00:47Z</time>
      </trkpt>
      <trkpt lat="48.09302" lon="7.69587">
        <ele>515.89</ele>
        <time>2016-07-24T12:01:07Z</time>
      </trkpt>
      <trkpt lat="48.0932" lon="7.69587">
        <ele>516.64</ele>
        <time>2016-07-24T12:01:27Z</time>
      </trkpt>
      <trkpt lat="48.0934" lon="7.69587">
        <ele>514.7</ele>
        <time>2016-07-24T12:01:47Z</time>
      </trkpt>
      <trkpt lat="48.09361" lon="7.69593">
        <ele>510.91</ele>
        <time>2016-07-24T12:02:07Z</time>
      </trkpt>
      <trkpt lat="48.09378" lon="7.69605">
        <ele>506.65</ele>
        <time>2016-07-24T12:02:27Z</time>
      </trkpt>
      <trkpt lat="48.09395" lon="7.69618">
        <ele>503.64</ele>
        <time>2016-07-24T12:03:11Z</time>
      </trkpt>
      <trkpt lat="48.09412" lon="7.69636">
        <ele>500.18</ele>
        <time>2016-07-24T12:03:31Z</time>
      </trkpt>
      <trkpt lat="48.09429" lon="7.69652">
        <ele>498.68</ele>
        <time>2016-07-24T12:03:43Z</time>
      </trkpt>
      <trkpt lat="48.09447" lon="7.69667">
        <ele>492.94</ele>
        <time>2016-07-24T12:03:59Z</time>
      </trkpt>
      <trkpt lat="48.09464" lon="7.69681">
        <ele>487.94</ele>
        <time>2016-07-24T12:04:11Z</time>
      </trkpt>
      <trkpt lat="48.09484" lon="7.69699">
        <ele>484.62</ele>
        <time>2016-07-24T12:04:27Z</time>
      </trkpt>
      <trkpt lat="48.095" lon="7.69717">
        <ele>486.21</ele>
        <time>2016-07-24T12:04:43Z</time>
      </trkpt>
      <trkpt lat="48.09521" lon="7.69719">
        <ele>481.26</ele>
        <time>2016-07-24T12:04:59Z</time>
      </trkpt>
      <trkpt lat="48.09544" lon="7.69709">
        <ele>476.93</ele>
        <time>2016-07-24T12:05:15Z</time>
      </trkpt>
      <trkpt lat="48.0956" lon="7.69687">
        <ele>470.07</ele>
        <time>2016-07-24T12:05:35Z</time>
      </trkpt>
      <trkpt lat="48.0958" lon="7.69675">
        <ele>472.09</ele>
        <time>2016-07-24T12:05:51Z</time>
      </trkpt>
      <trkpt lat="48.09599" lon="7.69684">
        <ele>463.01</ele>
        <time>2016-07-24T12:06:11Z</time>
      </trkpt>
      <trkpt lat="48.09619" lon="7.69693">
        <ele>459</ele>
        <time>2016-07-24T12:06:27Z</time>
      </trkpt>
      <trkpt lat="48.09635" lon="7.69713">
        <ele>455.18</ele>
        <time>2016-07-24T12:06:39Z</time>
      </trkpt>
      <trkpt lat="48.0965" lon="7.69732">
        <ele>453.42</ele>
        <time>2016-07-24T12:06:55Z</time>
      </trkpt>
      <trkpt lat="48.0967" lon="7.69733">
        <ele>448.31</ele>
        <time>2016-07-24T12:07:15Z</time>
      </trkpt>
      <trkpt lat="48.09693" lon="7.69732">
        <ele>443.84</ele>
        <time>2016-07-24T12:07:35Z</time>
      </trkpt>
      <trkpt lat="48.09714" lon="7.69727">
        <ele>439.82</ele>
        <time>2016-07-24T12:07:51Z</time>
      </trkpt>
      <trkpt lat="48.09732" lon="7.69728">
        <ele>441.61</ele>
        <time>2016-07-24T12:08:11Z</time>
      </trkpt>
      <trkpt lat="48.09749" lon="7.69711">
        <ele>439.85</ele>
        <time>2016-07-24T12:08:23Z</time>
      </trkpt>
      <trkpt lat="48.09763" lon="7.69693">
        <ele>436.89</ele>
        <time>2016-07-24T12:08:35Z</time>
      </trkpt>
      <trkpt lat="48.09777" lon="7.69672">
        <ele>436.61</ele>
        <time>2016-07-24T12:08:51Z</time>
      </trkpt>
      <trkpt lat="48.09794" lon="7.69658">
        <ele>437.71</ele>
        <time>2016-07-24T12:10:35Z</time>
      </trkpt>
      <trkpt lat="48.09816" lon="7.6965">
        <ele>440.79</ele>
        <time>2016-07-24T12:10:55Z</time>
      </trkpt>
      <trkpt lat="48.09834" lon="7.69651">
        <ele>440.64</ele>
        <time>2016-07-24T12:11:11Z</time>
      </trkpt>
      <trkpt lat="48.09856" lon="7.69654">
        <ele>439.45</ele>
        <time>2016-07-24T12:11:31Z</time>
      </trkpt>
      <trkpt lat="48.09874" lon="7.69657">
        <ele>440.63</ele>
        <time>2016-07-24T12:11:47Z</time>
      </trkpt>
      <trkpt lat="48.09894" lon="7.69659">
        <ele>441.47</ele>
        <time>2016-07-24T12:12:03Z</time>
      </trkpt>
      <trkpt lat="48.09914" lon="7.69659">
        <ele>442.6</ele>
        <time>2016-07-24T12:12:19Z</time>
      </trkpt>
      <trkpt lat="48.09933" lon="7.69658">
        <ele>445.36</ele>
        <time>2016-07-24T12:12:35Z</time>
      </trkpt>
      <trkpt lat="48.09953" lon="7.69664">
        <ele>442.29</ele>
        <time>2016-07-24T12:12:51Z</time>
      </trkpt>
      <trkpt lat="48.09975" lon="7.69665">
        <ele>444.83</ele>
        <time>2016-07-24T12:13:07Z</time>
      </trkpt>
      <trkpt lat="48.09994" lon="7.6967">
        <ele>452.58</ele>
        <time>2016-07-24T12:13:27Z</time>
      </trkpt>
      <trkpt lat="48.10014" lon="7.69676">
        <ele>458.18</ele>
        <time>2016-07-24T12:13:47Z</time>
      </trkpt>
      <trkpt lat="48.10033" lon="7.69677">
        <ele>462.39</ele>
        <time>2016-07-24T12:14:07Z</time>
      </trkpt>
      <trkpt lat="48.10052" lon="7.69684">
        <ele>460.04</ele>
        <time>2016-07-24T12:14:27Z</time>
      </trkpt>
      <trkpt lat="48.10074" lon="7.69687">
        <ele>456.69</ele>
        <time>2016-07-24T12:14:47Z</time>
      </trkpt>
      <trkpt lat="48.10072" lon="7.69659">
        <ele>463.47</ele>
        <time>2016-07-24T12:15:19Z</time>
      </trkpt>
      <trkpt lat="48.1006" lon="7.69633">
        <ele>461.72</ele>
        <time>2016-07-24T12:15:35Z</time>
      </trkpt>
      <trkpt lat="48.10049" lon="7.69607">
        <ele>462.83</ele>
        <time>2016-07-24T12:15:51Z</time>
      </trkpt>
      <trkpt lat="48.1004" lon="7.69579">
        <ele>461.01</ele>
        <time>2016-07-24T12:16:07Z</time>
      </trkpt>
      <trkpt lat="48.10033" lon="7.69549">
        <ele>460.48</ele>
        <time>2016-07-24T12:16:23Z</time>
      </trkpt>
      <trkpt lat="48.10028" lon="7.69521">
        <ele>465.39</ele>
        <time>2016-07-24T12:16:39Z</time>
      </trkpt>
      <trkpt lat="48.10025" lon="7.69491">
        <ele>466.6</ele>
        <time>2016-07-24T12:16:55Z</time>
      </trkpt>
      <trkpt lat="48.10022" lon="7.6946">
        <ele>464.68</ele>
        <time>2016-07-24T12:17:15Z</time>
      </trkpt>
      <trkpt lat="48.1002" lon="7.69431">
        <ele>461.05</ele>
        <time>2016-07-24T12:17:31Z</time>
      </trkpt>
      <trkpt lat="48.10018" lon="7.69402">
        <ele>457.89</ele>
        <time>2016-07-24T12:17:47Z</time>
      </trkpt>
      <trkpt lat="48.10017" lon="7.69371">
        <ele>454.88</ele>
        <time>2016-07-24T12:18:03Z</time>
      </trkpt>
      <trkpt lat="48.10016" lon="7.69337">
        <ele>449.93</ele>
        <time>2016-07-24T12:18:19Z</time>
      </trkpt>
      <trkpt lat="48.10012" lon="7.69303">
        <ele>437.05</ele>
        <time>2016-07-24T12:18:35Z</time>
      </trkpt>
      <trkpt lat="48.10009" lon="7.69269">
        <ele>433.25</ele>
        <time>2016-07-24T12:18:51Z</time>
      </trkpt>
      <trkpt lat="48.10005" lon="7.69238">
        <ele>439.35</ele>
        <time>2016-07-24T12:19:07Z</time>
      </trkpt>
      <trkpt lat="48.10005" lon="7.69206">
        <ele>442.79</ele>
        <time>2016-07-24T12:19:23Z</time>
      </trkpt>
      <trkpt lat="48.10008" lon="7.69171">
        <ele>438.88</ele>
        <time>2016-07-24T12:19:39Z</time>
      </trkpt>
      <trkpt lat="48.10002" lon="7.69144">
        <ele>433.9</ele>
        <time>2016-07-24T12:19:55Z</time>
      </trkpt>
      <trkpt lat="48.09997" lon="7.69112">
        <ele>429.93</ele>
        <time>2016-07-24T12:20:11Z</time>
      </trkpt>
      <trkpt lat="48.09993" lon="7.6908">
        <ele>426.05</ele>
        <time>2016-07-24T12:20:27Z</time>
      </trkpt>
      <trkpt lat="48.09991" lon="7.6905">
        <ele>419.9</ele>
        <time>2016-07-24T12:20:43Z</time>
      </trkpt>
      <trkpt lat="48.09989" lon="7.6902">
        <ele>414.9</ele>
        <time>2016-07-24T12:20:59Z</time>
      </trkpt>
      <trkpt lat="48.09986" lon="7.68987">
        <ele>411.05</ele>
        <time>2016-07-24T12:21:15Z</time>
      </trkpt>
      <trkpt lat="48.09982" lon="7.68954">
        <ele>405.9</ele>
        <time>2016-07-24T12:21:31Z</time>
      </trkpt>
      <trkpt lat="48.09976" lon="7.68924">
        <ele>401.73</ele>
        <time>2016-07-24T12:21:47Z</time>
      </trkpt>
      <trkpt lat="48.09968" lon="7.68894">
        <ele>397.89</ele>
        <time>2016-07-24T12:22:03Z</time>
      </trkpt>
      <trkpt lat="48.0996" lon="7.68865">
        <ele>398.6</ele>
        <time>2016-07-24T12:22:19Z</time>
      </trkpt>
      <trkpt lat="48.09948" lon="7.68843">
        <ele>399.39</ele>
        <time>2016-07-24T12:22:35Z</time>
      </trkpt>
      <trkpt lat="48.09932" lon="7.68821">
        <ele>403.55</ele>
        <time>2016-07-24T12:22:55Z</time>
      </trkpt>
      <trkpt lat="48.09918" lon="7.68794">
        <ele>404.68</ele>
        <time>2016-07-24T12:23:15Z</time>
      </trkpt>
      <trkpt lat="48.09907" lon="7.68766">
        <ele>399.06</ele>
        <time>2016-07-24T12:23:31Z</time>
      </trkpt>
      <trkpt lat="48.09899" lon="7.68734">
        <ele>395.72</ele>
        <time>2016-07-24T12:23:47Z</time>
      </trkpt>
      <trkpt lat="48.09892" lon="7.68702">
        <ele>396.63</ele>
        <time>2016-07-24T12:24:03Z</time>
      </trkpt>
      <trkpt lat="48.09884" lon="7.68672">
        <ele>399.58</ele>
        <time>2016-07-24T12:24:19Z</time>
      </trkpt>
      <trkpt lat="48.09874" lon="7.68643">
        <ele>399.8</ele>
        <time>2016-07-24T12:24:35Z</time>
      </trkpt>
      <trkpt lat="48.0986" lon="7.68615">
        <ele>398.83</ele>
        <time>2016-07-24T12:24:51Z</time>
      </trkpt>
      <trkpt lat="48.0985" lon="7.68585">
        <ele>393.29</ele>
        <time>2016-07-24T12:25:07Z</time>
      </trkpt>
      <trkpt lat="48.09849" lon="7.68543">
        <ele>388.18</ele>
        <time>2016-07-24T12:25:15Z</time>
      </trkpt>
      <trkpt lat="48.09844" lon="7.68515">
        <ele>389.43</ele>
        <time>2016-07-24T12:25:35Z</time>
      </trkpt>
      <trkpt lat="48.09833" lon="7.6849">
        <ele>397.94</ele>
        <time>2016-07-24T12:25:59Z</time>
      </trkpt>
      <trkpt lat="48.09824" lon="7.68465">
        <ele>397.41</ele>
        <time>2016-07-24T12:26:15Z</time>
      </trkpt>
      <trkpt lat="48.09815" lon="7.68441">
        <ele>400.59</ele>
        <time>2016-07-24T12:26:31Z</time>
      </trkpt>
      <trkpt lat="48.09805" lon="7.68416">
        <ele>401.64</ele>
        <time>2016-07-24T12:26:47Z</time>
      </trkpt>
      <trkpt lat="48.09794" lon="7.68388">
        <ele>405.23</ele>
        <time>2016-07-24T12:27:07Z</time>
      </trkpt>
      <trkpt lat="48.09785" lon="7.68364">
        <ele>411.37</ele>
        <time>2016-07-24T12:27:23Z</time>
      </trkpt>
      <trkpt lat="48.0978" lon="7.68336">
        <ele>412.06</ele>
        <time>2016-07-24T12:27:39Z</time>
      </trkpt>
      <trkpt lat="48.09773" lon="7.68311">
        <ele>412.91</ele>
        <time>2016-07-24T12:27:55Z</time>
      </trkpt>
      <trkpt lat="48.09769" lon="7.68283">
        <ele>413.58</ele>
        <time>2016-07-24T12:28:11Z</time>
      </trkpt>
      <trkpt lat="48.09759" lon="7.68259">
        <ele>418.95</ele>
        <time>2016-07-24T12:28:35Z</time>
      </trkpt>
      <trkpt lat="48.09754" lon="7.68229">
        <ele>425.79</ele>
        <time>2016-07-24T12:28:59Z</time>
      </trkpt>
      <trkpt lat="48.0974" lon="7.68205">
        <ele>436.24</ele>
        <time>2016-07-24T12:29:23Z</time>
      </trkpt>
      <trkpt lat="48.09718" lon="7.68207">
        <ele>426.73</ele>
        <time>2016-07-24T12:32:31Z</time>
      </trkpt>
      <trkpt lat="48.09697" lon="7.68203">
        <ele>429.23</ele>
        <time>2016-07-24T12:32:47Z</time>
      </trkpt>
      <trkpt lat="48.09679" lon="7.68194">
        <ele>429.67</ele>
        <time>2016-07-24T12:32:59Z</time>
      </trkpt>
      <trkpt lat="48.09664" lon="7.68179">
        <ele>425.13</ele>
        <time>2016-07-24T12:33:11Z</time>
      </trkpt>
      <trkpt lat="48.09648" lon="7.6816">
        <ele>423.85</ele>
        <time>2016-07-24T12:33:27Z</time>
      </trkpt>
      <trkpt lat="48.09632" lon="7.68138">
        <ele>424.93</ele>
        <time>2016-07-24T12:33:43Z</time>
      </trkpt>
      <trkpt lat="48.09615" lon="7.68114">
        <ele>422.16</ele>
        <time>2016-07-24T12:33:59Z</time>
      </trkpt>
      <trkpt lat="48.09597" lon="7.68099">
        <ele>421.92</ele>
        <time>2016-07-24T12:34:15Z</time>
      </trkpt>
      <trkpt lat="48.09577" lon="7.68088">
        <ele>422.54</ele>
        <time>2016-07-24T12:34:31Z</time>
      </trkpt>
      <trkpt lat="48.09556" lon="7.68072">
        <ele>428.83</ele>
        <time>2016-07-24T12:34:47Z</time>
      </trkpt>
      <trkpt lat="48.09547" lon="7.68046">
        <ele>429.43</ele>
        <time>2016-07-24T12:35:03Z</time>
      </trkpt>
      <trkpt lat="48.09537" lon="7.6802">
        <ele>430.3</ele>
        <time>2016-07-24T12:35:19Z</time>
      </trkpt>
      <trkpt lat="48.09534" lon="7.67989">
        <ele>434.16</ele>
        <time>2016-07-24T12:35:35Z</time>
      </trkpt>
      <trkpt lat="48.09533" lon="7.67957">
        <ele>431.03</ele>
        <time>2016-07-24T12:35:51Z</time>
      </trkpt>
      <trkpt lat="48.09532" lon="7.67926">
        <ele>424.49</ele>
        <time>2016-07-24T12:36:07Z</time>
      </trkpt>
      <trkpt lat="48.0953" lon="7.67895">
        <ele>423.61</ele>
        <time>2016-07-24T12:36:23Z</time>
      </trkpt>
      <trkpt lat="48.09538" lon="7.67862">
        <ele>420.77</ele>
        <time>2016-07-24T12:36:39Z</time>
      </trkpt>
      <trkpt lat="48.09547" lon="7.67831">
        <ele>422.33</ele>
        <time>2016-07-24T12:36:55Z</time>
      </trkpt>
      <trkpt lat="48.09557" lon="7.678">
        <ele>429.2</ele>
        <time>2016-07-24T12:37:11Z</time>
      </trkpt>
      <trkpt lat="48.09564" lon="7.67768">
        <ele>423.03</ele>
        <time>2016-07-24T12:37:27Z</time>
      </trkpt>
      <trkpt lat="48.09574" lon="7.6774">
        <ele>425.63</ele>
        <time>2016-07-24T12:37:43Z</time>
      </trkpt>
      <trkpt lat="48.09586" lon="7.67717">
        <ele>429.63</ele>
        <time>2016-07-24T12:38:55Z</time>
      </trkpt>
      <trkpt lat="48.09579" lon="7.67689">
        <ele>423.97</ele>
        <time>2016-07-24T12:39:11Z</time>
      </trkpt>
      <trkpt lat="48.09569" lon="7.67664">
        <ele>418.1</ele>
        <time>2016-07-24T12:39:27Z</time>
      </trkpt>
      <trkpt lat="48.0956" lon="7.67636">
        <ele>411.93</ele>
        <time>2016-07-24T12:39:43Z</time>
      </trkpt>
      <trkpt lat="48.09552" lon="7.67607">
        <ele>404.94</ele>
        <time>2016-07-24T12:39:59Z</time>
      </trkpt>
      <trkpt lat="48.09546" lon="7.67576">
        <ele>402.53</ele>
        <time>2016-07-24T12:40:15Z</time>
      </trkpt>
      <trkpt lat="48.09541" lon="7.67545">
        <ele>403.4</ele>
        <time>2016-07-24T12:40:31Z</time>
      </trkpt>
      <trkpt lat="48.09536" lon="7.67517">
        <ele>403.64</ele>
        <time>2016-07-24T12:40:47Z</time>
      </trkpt>
      <trkpt lat="48.09534" lon="7.67486">
        <ele>407.04</ele>
        <time>2016-07-24T12:41:07Z</time>
      </trkpt>
      <trkpt lat="48.09537" lon="7.67456">
        <ele>406.63</ele>
        <time>2016-07-24T12:41:23Z</time>
      </trkpt>
      <trkpt lat="48.09531" lon="7.6743">
        <ele>407.64</ele>
        <time>2016-07-24T12:41:39Z</time>
      </trkpt>
      <trkpt lat="48.09529" lon="7.67402">
        <ele>409.4</ele>
        <time>2016-07-24T12:41:55Z</time>
      </trkpt>
      <trkpt lat="48.0953" lon="7.6737">
        <ele>415.55</ele>
        <time>2016-07-24T12:42:15Z</time>
      </trkpt>
      <trkpt lat="48.09535" lon="7.67343">
        <ele>418.42</ele>
        <time>2016-07-24T12:43:11Z</time>
      </trkpt>
      <trkpt lat="48.09543" lon="7.67308">
        <ele>403.95</ele>
        <time>2016-07-24T12:44:03Z</time>
      </trkpt>
      <trkpt lat="48.0955" lon="7.67275">
        <ele>402.69</ele>
        <time>2016-07-24T12:44:19Z</time>
      </trkpt>
      <trkpt lat="48.09555" lon="7.67247">
        <ele>404.65</ele>
        <time>2016-07-24T12:44:31Z</time>
      </trkpt>
      <trkpt lat="48.09559" lon="7.67218">
        <ele>398.62</ele>
        <time>2016-07-24T12:44:43Z</time>
      </trkpt>
      <trkpt lat="48.09557" lon="7.6719">
        <ele>397.26</ele>
        <time>2016-07-24T12:44:55Z</time>
      </trkpt>
      <trkpt lat="48.09553" lon="7.67161">
        <ele>394.85</ele>
        <time>2016-07-24T12:45:07Z</time>
      </trkpt>
      <trkpt lat="48.09549" lon="7.67131">
        <ele>393.14</ele>
        <time>2016-07-24T12:45:19Z</time>
      </trkpt>
      <trkpt lat="48.09531" lon="7.67096">
        <ele>384.15</ele>
        <time>2016-07-24T12:45:36Z</time>
      </trkpt>
      <trkpt lat="48.09517" lon="7.67075">
        <ele>369.01</ele>
        <time>2016-07-24T12:45:52Z</time>
      </trkpt>
      <trkpt lat="48.09502" lon="7.67048">
        <ele>367.1</ele>
        <time>2016-07-24T12:46:04Z</time>
      </trkpt>
      <trkpt lat="48.09488" lon="7.67026">
        <ele>366.61</ele>
        <time>2016-07-24T12:46:16Z</time>
      </trkpt>
      <trkpt lat="48.09475" lon="7.67008">
        <ele>362.88</ele>
        <time>2016-07-24T12:46:32Z</time>
      </trkpt>
      <trkpt lat="48.09487" lon="7.66984">
        <ele>363.29</ele>
        <time>2016-07-24T12:48:20Z</time>
      </trkpt>
      <trkpt lat="48.09505" lon="7.66976">
        <ele>352.53</ele>
        <time>2016-07-24T12:48:32Z</time>
      </trkpt>
      <trkpt lat="48.09524" lon="7.66962">
        <ele>341.64</ele>
        <time>2016-07-24T12:49:44Z</time>
      </trkpt>
      <trkpt lat="48.0954" lon="7.66937">
        <ele>332.67</ele>
        <time>2016-07-24T12:50:00Z</time>
      </trkpt>
      <trkpt lat="48.09559" lon="7.66914">
        <ele>328.21</ele>
        <time>2016-07-24T12:50:16Z</time>
      </trkpt>
      <trkpt lat="48.09568" lon="7.66887">
        <ele>328.12</ele>
        <time>2016-07-24T12:50:28Z</time>
      </trkpt>
      <trkpt lat="48.09576" lon="7.66862">
        <ele>330.59</ele>
        <time>2016-07-24T12:50:40Z</time>
      </trkpt>
      <trkpt lat="48.09586" lon="7.66839">
        <ele>329.01</ele>
        <time>2016-07-24T12:50:52Z</time>
      </trkpt>
      <trkpt lat="48.09593" lon="7.66814">
        <ele>326.98</ele>
        <time>2016-07-24T12:51:04Z</time>
      </trkpt>
      <trkpt lat="48.09586" lon="7.66782">
        <ele>324.85</ele>
        <time>2016-07-24T12:51:20Z</time>
      </trkpt>
      <trkpt lat="48.09581" lon="7.66756">
        <ele>316.98</ele>
        <time>2016-07-24T12:51:36Z</time>
      </trkpt>
      <trkpt lat="48.09591" lon="7.66725">
        <ele>315.62</ele>
        <time>2016-07-24T12:51:55Z</time>
      </trkpt>
      <trkpt lat="48.09588" lon="7.66692">
        <ele>314.62</ele>
        <time>2016-07-24T12:52:12Z</time>
      </trkpt>
      <trkpt lat="48.09588" lon="7.66661">
        <ele>313.37</ele>
        <time>2016-07-24T12:52:28Z</time>
      </trkpt>
      <trkpt lat="48.09584" lon="7.66634">
        <ele>310.18</ele>
        <time>2016-07-24T12:52:44Z</time>
      </trkpt>
      <trkpt lat="48.09577" lon="7.66604">
        <ele>298.56</ele>
        <time>2016-07-24T12:53:04Z</time>
      </trkpt>
      <trkpt lat="48.09584" lon="7.66576">
        <ele>289.95</ele>
        <time>2016-07-24T12:53:24Z</time>
      </trkpt>
      <trkpt lat="48.09595" lon="7.66549">
        <ele>291.33</ele>
        <time>2016-07-24T12:53:48Z</time>
      </trkpt>
      <trkpt lat="48.09593" lon="7.66522">
        <ele>274.25</ele>
        <time>2016-07-24T12:54:12Z</time>
      </trkpt>
      <trkpt lat="48.09575" lon="7.66513">
        <ele>275.21</ele>
        <time>2016-07-24T12:54:24Z</time>
      </trkpt>
      <trkpt lat="48.09557" lon="7.66525">
        <ele>274.76</ele>
        <time>2016-07-24T12:54:40Z</time>
      </trkpt>
      <trkpt lat="48.09564" lon="7.66495">
        <ele>268.15</ele>
        <time>2016-07-24T12:55:00Z</time>
      </trkpt>
      <trkpt lat="48.09582" lon="7.6649">
        <ele>267.95</ele>
        <time>2016-07-24T12:55:16Z</time>
      </trkpt>
      <trkpt lat="48.09602" lon="7.66486">
        <ele>267</ele>
        <time>2016-07-24T12:55:32Z</time>
      </trkpt>
      <trkpt lat="48.096" lon="7.66456">
        <ele>254.52</ele>
        <time>2016-07-24T12:55:52Z</time>
      </trkpt>
      <trkpt lat="48.09595" lon="7.66421">
        <ele>259.84</ele>
        <time>2016-07-24T12:56:12Z</time>
      </trkpt>
      <trkpt lat="48.09592" lon="7.6639">
        <ele>257.65</ele>
        <time>2016-07-24T12:56:32Z</time>
      </trkpt>
      <trkpt lat="48.09582" lon="7.66367">
        <ele>260</ele>
        <time>2016-07-24T12:56:52Z</time>
      </trkpt>
      <trkpt lat="48.09573" lon="7.66342">
        <ele>255.34</ele>
        <time>2016-07-24T12:57:08Z</time>
      </trkpt>
      <trkpt lat="48.09587" lon="7.66317">
        <ele>256.08</ele>
        <time>2016-07-24T12:57:40Z</time>
      </trkpt>
      <trkpt lat="48.09607" lon="7.66296">
        <ele>259.57</ele>
        <time>2016-07-24T12:57:56Z</time>
      </trkpt>
      <trkpt lat="48.0962" lon="7.6627">
        <ele>261.37</ele>
        <time>2016-07-24T12:58:12Z</time>
      </trkpt>
      <trkpt lat="48.0963" lon="7.66248">
        <ele>251.88</ele>
        <time>2016-07-24T12:58:24Z</time>
      </trkpt>
      <trkpt lat="48.09638" lon="7.66216">
        <ele>251.05</ele>
        <time>2016-07-24T12:58:40Z</time>
      </trkpt>
      <trkpt lat="48.09639" lon="7.66184">
        <ele>253.38</ele>
        <time>2016-07-24T12:58:56Z</time>
      </trkpt>
      <trkpt lat="48.09649" lon="7.6615">
        <ele>252.68</ele>
        <time>2016-07-24T12:59:12Z</time>
      </trkpt>
      <trkpt lat="48.09646" lon="7.66117">
        <ele>256.98</ele>
        <time>2016-07-24T12:59:28Z</time>
      </trkpt>
      <trkpt lat="48.0964" lon="7.66091">
        <ele>256.7</ele>
        <time>2016-07-24T12:59:40Z</time>
      </trkpt>
      <trkpt lat="48.09636" lon="7.66063">
        <ele>255.84</ele>
        <time>2016-07-24T12:59:56Z</time>
      </trkpt>
      <trkpt lat="48.09628" lon="7.66033">
        <ele>253.1</ele>
        <time>2016-07-24T13:00:12Z</time>
      </trkpt>
      <trkpt lat="48.09622" lon="7.66001">
        <ele>256.23</ele>
        <time>2016-07-24T13:00:28Z</time>
      </trkpt>
      <trkpt lat="48.09615" lon="7.65973">
        <ele>252.11</ele>
        <time>2016-07-24T13:00:44Z</time>
      </trkpt>
      <trkpt lat="48.09605" lon="7.65947">
        <ele>252.6</ele>
        <time>2016-07-24T13:01:00Z</time>
      </trkpt>
      <trkpt lat="48.09594" lon="7.65924">
        <ele>251.52</ele>
        <time>2016-07-24T13:01:12Z</time>
      </trkpt>
      <trkpt lat="48.09584" lon="7.65895">
        <ele>245.36</ele>
        <time>2016-07-24T13:01:28Z</time>
      </trkpt>
      <trkpt lat="48.09573" lon="7.65869">
        <ele>244.54</ele>
        <time>2016-07-24T13:01:44Z</time>
      </trkpt>
      <trkpt lat="48.0957" lon="7.65838">
        <ele>246.99</ele>
        <time>2016-07-24T13:02:00Z</time>
      </trkpt>
      <trkpt lat="48.09564" lon="7.65811">
        <ele>248.3</ele>
        <time>2016-07-24T13:02:12Z</time>
      </trkpt>
      <trkpt lat="48.0956" lon="7.65779">
        <ele>244.78</ele>
        <time>2016-07-24T13:02:28Z</time>
      </trkpt>
      <trkpt lat="48.09557" lon="7.65746">
        <ele>241.65</ele>
        <time>2016-07-24T13:02:44Z</time>
      </trkpt>
      <trkpt lat="48.09553" lon="7.65714">
        <ele>243.47</ele>
        <time>2016-07-24T13:03:00Z</time>
      </trkpt>
      <trkpt lat="48.09547" lon="7.65687">
        <ele>241.55</ele>
        <time>2016-07-24T13:03:16Z</time>
      </trkpt>
      <trkpt lat="48.09542" lon="7.65657">
        <ele>242.59</ele>
        <time>2016-07-24T13:03:32Z</time>
      </trkpt>
      <trkpt lat="48.09529" lon="7.65633">
        <ele>244.44</ele>
        <time>2016-07-24T13:03:48Z</time>
      </trkpt>
      <trkpt lat="48.09518" lon="7.65606">
        <ele>242.04</ele>
        <time>2016-07-24T13:04:04Z</time>
      </trkpt>
      <trkpt lat="48.09499" lon="7.65586">
        <ele>242.86</ele>
        <time>2016-07-24T13:04:24Z</time>
      </trkpt>
      <trkpt lat="48.09489" lon="7.65553">
        <ele>245.49</ele>
        <time>2016-07-24T13:04:40Z</time>
      </trkpt>
      <trkpt lat="48.09484" lon="7.65526">
        <ele>238.92</ele>
        <time>2016-07-24T13:04:52Z</time>
      </trkpt>
      <trkpt lat="48.09475" lon="7.65497">
        <ele>240.59</ele>
        <time>2016-07-24T13:05:08Z</time>
      </trkpt>
      <trkpt lat="48.09471" lon="7.65467">
        <ele>243.2</ele>
        <time>2016-07-24T13:05:24Z</time>
      </trkpt>
      <trkpt lat="48.09471" lon="7.65436">
        <ele>240.24</ele>
        <time>2016-07-24T13:05:40Z</time>
      </trkpt>
      <trkpt lat="48.09464" lon="7.65405">
        <ele>239.04</ele>
        <time>2016-07-24T13:05:56Z</time>
      </trkpt>
      <trkpt lat="48.09465" lon="7.65372">
        <ele>238.67</ele>
        <time>2016-07-24T13:06:12Z</time>
      </trkpt>
      <trkpt lat="48.09453" lon="7.65346">
        <ele>236.6</ele>
        <time>2016-07-24T13:06:28Z</time>
      </trkpt>
      <trkpt lat="48.09442" lon="7.65315">
        <ele>242.04</ele>
        <time>2016-07-24T13:06:44Z</time>
      </trkpt>
      <trkpt lat="48.09437" lon="7.65281">
        <ele>242.46</ele>
        <time>2016-07-24T13:07:00Z</time>
      </trkpt>
      <trkpt lat="48.0943" lon="7.65255">
        <ele>235.94</ele>
        <time>2016-07-24T13:07:16Z</time>
      </trkpt>
      <trkpt lat="48.09422" lon="7.65225">
        <ele>234.27</ele>
        <time>2016-07-24T13:07:32Z</time>
      </trkpt>
      <trkpt lat="48.09416" lon="7.65195">
        <ele>235.84</ele>
        <time>2016-07-24T13:07:48Z</time>
      </trkpt>
      <trkpt lat="48.09411" lon="7.65166">
        <ele>238.76</ele>
        <time>2016-07-24T13:08:04Z</time>
      </trkpt>
      <trkpt lat="48.09407" lon="7.65133">
        <ele>238.67</ele>
        <time>2016-07-24T13:11:04Z</time>
      </trkpt>
      <trkpt lat="48.09402" lon="7.65105">
        <ele>236.52</ele>
        <time>2016-07-24T13:11:20Z</time>
      </trkpt>
      <trkpt lat="48.09393" lon="7.6508">
        <ele>237.8</ele>
        <time>2016-07-24T13:11:36Z</time>
      </trkpt>
      <trkpt lat="48.09391" lon="7.65048">
        <ele>237.08</ele>
        <time>2016-07-24T13:12:24Z</time>
      </trkpt>
      <trkpt lat="48.09385" lon="7.65017">
        <ele>244.79</ele>
        <time>2016-07-24T13:12:40Z</time>
      </trkpt>
      <trkpt lat="48.0937" lon="7.64996">
        <ele>255.49</ele>
        <time>2016-07-24T13:12:56Z</time>
      </trkpt>
      <trkpt lat="48.09352" lon="7.6498">
        <ele>245.94</ele>
        <time>2016-07-24T13:13:08Z</time>
      </trkpt>
      <trkpt lat="48.09338" lon="7.64956">
        <ele>242.7</ele>
        <time>2016-07-24T13:13:28Z</time>
      </trkpt>
      <trkpt lat="48.0933" lon="7.64928">
        <ele>243.82</ele>
        <time>2016-07-24T13:13:44Z</time>
      </trkpt>
      <trkpt lat="48.09313" lon="7.64911">
        <ele>242.04</ele>
        <time>2016-07-24T13:13:56Z</time>
      </trkpt>
      <trkpt lat="48.093" lon="7.64888">
        <ele>236.62</ele>
        <time>2016-07-24T13:14:12Z</time>
      </trkpt>
      <trkpt lat="48.09285" lon="7.64867">
        <ele>234.8</ele>
        <time>2016-07-24T13:14:28Z</time>
      </trkpt>
      <trkpt lat="48.09268" lon="7.64845">
        <ele>232.68</ele>
        <time>2016-07-24T13:14:44Z</time>
      </trkpt>
      <trkpt lat="48.09253" lon="7.64825">
        <ele>233.4</ele>
        <time>2016-07-24T13:15:00Z</time>
      </trkpt>
      <trkpt lat="48.09238" lon="7.64802">
        <ele>235.84</ele>
        <time>2016-07-24T13:15:16Z</time>
      </trkpt>
      <trkpt lat="48.09228" lon="7.64778">
        <ele>228.34</ele>
        <time>2016-07-24T13:15:32Z</time>
      </trkpt>
      <trkpt lat="48.09206" lon="7.64762">
        <ele>230.24</ele>
        <time>2016-07-24T13:15:52Z</time>
      </trkpt>
      <trkpt lat="48.0919" lon="7.64747">
        <ele>233.87</ele>
        <time>2016-07-24T13:16:09Z</time>
      </trkpt>
      <trkpt lat="48.0918" lon="7.64721">
        <ele>232.04</ele>
        <time>2016-07-24T13:16:25Z</time>
      </trkpt>
      <trkpt lat="48.09166" lon="7.64696">
        <ele>228.2</ele>
        <time>2016-07-24T13:16:41Z</time>
      </trkpt>
      <trkpt lat="48.09153" lon="7.64674">
        <ele>224.69</ele>
        <time>2016-07-24T13:16:57Z</time>
      </trkpt>
      <trkpt lat="48.09141" lon="7.6465">
        <ele>222.85</ele>
        <time>2016-07-24T13:17:13Z</time>
      </trkpt>
      <trkpt lat="48.09126" lon="7.64625">
        <ele>223.72</ele>
        <time>2016-07-24T13:17:29Z</time>
      </trkpt>
      <trkpt lat="48.09114" lon="7.64602">
        <ele>226.02</ele>
        <time>2016-07-24T13:17:49Z</time>
      </trkpt>
      <trkpt lat="48.09106" lon="7.64577">
        <ele>222.86</ele>
        <time>2016-07-24T13:18:01Z</time>
      </trkpt>
      <trkpt lat="48.09093" lon="7.64553">
        <ele>220.65</ele>
        <time>2016-07-24T13:18:17Z</time>
      </trkpt>
      <trkpt lat="48.09077" lon="7.64527">
        <ele>222.56</ele>
        <time>2016-07-24T13:18:33Z</time>
      </trkpt>
      <trkpt lat="48.09063" lon="7.64504">
        <ele>223.28</ele>
        <time>2016-07-24T13:18:49Z</time>
      </trkpt>
      <trkpt lat="48.0905" lon="7.64484">
        <ele>223.6</ele>
        <time>2016-07-24T13:19:05Z</time>
      </trkpt>
      <trkpt lat="48.09038" lon="7.64463">
        <ele>221.65</ele>
        <time>2016-07-24T13:19:21Z</time>
      </trkpt>
      <trkpt lat="48.09022" lon="7.64439">
        <ele>224.39</ele>
        <time>2016-07-24T13:19:37Z</time>
      </trkpt>
      <trkpt lat="48.09006" lon="7.64415">
        <ele>221.84</ele>
        <time>2016-07-24T13:19:57Z</time>
      </trkpt>
      <trkpt lat="48.08993" lon="7.64395">
        <ele>218.5</ele>
        <time>2016-07-24T13:20:13Z</time>
      </trkpt>
      <trkpt lat="48.0898" lon="7.64376">
        <ele>217.68</ele>
        <time>2016-07-24T13:20:29Z</time>
      </trkpt>
      <trkpt lat="48.08965" lon="7.64355">
        <ele>218.41</ele>
        <time>2016-07-24T13:20:45Z</time>
      </trkpt>
      <trkpt lat="48.0895" lon="7.64332">
        <ele>221.5</ele>
        <time>2016-07-24T13:21:05Z</time>
      </trkpt>
      <trkpt lat="48.08938" lon="7.64306">
        <ele>223.03</ele>
        <time>2016-07-24T13:21:25Z</time>
      </trkpt>
      <trkpt lat="48.08927" lon="7.64284">
        <ele>224.43</ele>
        <time>2016-07-24T13:21:37Z</time>
      </trkpt>
      <trkpt lat="48.08914" lon="7.64256">
        <ele>222.76</ele>
        <time>2016-07-24T13:21:53Z</time>
      </trkpt>
      <trkpt lat="48.08905" lon="7.64229">
        <ele>222.68</ele>
        <time>2016-07-24T13:22:09Z</time>
      </trkpt>
      <trkpt lat="48.08896" lon="7.64204">
        <ele>221.08</ele>
        <time>2016-07-24T13:22:25Z</time>
      </trkpt>
      <trkpt lat="48.08887" lon="7.64174">
        <ele>217.7</ele>
        <time>2016-07-24T13:22:41Z</time>
      </trkpt>
      <trkpt lat="48.0888" lon="7.64141">
        <ele>217.82</ele>
        <time>2016-07-24T13:22:57Z</time>
      </trkpt>
      <trkpt lat="48.08882" lon="7.64106">
        <ele>225.23</ele>
        <time>2016-07-24T13:23:14Z</time>
      </trkpt>
      <trkpt lat="48.08875" lon="7.64077">
        <ele>223.11</ele>
        <time>2016-07-24T13:23:29Z</time>
      </trkpt>
      <trkpt lat="48.08856" lon="7.64069">
        <ele>218.65</ele>
        <time>2016-07-24T13:23:49Z</time>
      </trkpt>
      <trkpt lat="48.08835" lon="7.64057">
        <ele>214.67</ele>
        <time>2016-07-24T13:24:09Z</time>
      </trkpt>
      <trkpt lat="48.08812" lon="7.64051">
        <ele>226.39</ele>
        <time>2016-07-24T13:24:29Z</time>
      </trkpt>
      <trkpt lat="48.08794" lon="7.64043">
        <ele>227.8</ele>
        <time>2016-07-24T13:24:45Z</time>
      </trkpt>
      <trkpt lat="48.08777" lon="7.64018">
        <ele>230.59</ele>
        <time>2016-07-24T13:25:01Z</time>
      </trkpt>
      <trkpt lat="48.08761" lon="7.64003">
        <ele>234.57</ele>
        <time>2016-07-24T13:25:17Z</time>
      </trkpt>
      <trkpt lat="48.08766" lon="7.6403">
        <ele>233.65</ele>
        <time>2016-07-24T13:25:33Z</time>
      </trkpt>
      <trkpt lat="48.08779" lon="7.64053">
        <ele>236.23</ele>
        <time>2016-07-24T13:25:49Z</time>
      </trkpt>
      <trkpt lat="48.08793" lon="7.64077">
        <ele>240.16</ele>
        <time>2016-07-24T13:26:05Z</time>
      </trkpt>
      <trkpt lat="48.08812" lon="7.64091">
        <ele>243.43</ele>
        <time>2016-07-24T13:26:21Z</time>
      </trkpt>
    </trkseg>
  </trk>
</gpx>